This is the latest recevied weather packets stored in our database for station/object K4SPB-4. If no packets are shown the sender has not sent any weather packets the latest 10 day(s).
| Time | Temp. | Humidity | Pressure | Rain* | Wind** | Luminosity | Snow |
|---|---|---|---|---|---|---|---|
| 1778173904 | 16.67° C | 49% | 1016.5 hPa | 0 mm | - | - | - |
| 1778164231 | 14.44° C | 72% | 1017 hPa | 0 mm | - | - | - |
| 1778162421 | 13.89° C | 77% | 1017 hPa | 0 mm | - | - | - |
| 1778158225 | 11.67° C | 86% | 1016.5 hPa | 0 mm | - | - | - |
| 1778156418 | 10.56° C | 90% | 1016.2 hPa | 0 mm | - | - | - |
| 1778152223 | 10° C | 93% | 1015.3 hPa | 0 mm | - | - | - |
| 1778149231 | 10° C | 94% | 1015 hPa | 0 mm | - | - | - |
| 1778148027 | 10.56° C | 94% | 1015.2 hPa | 0 mm | - | - | - |
| 1778142029 | 11.11° C | 93% | 1014.5 hPa | 0 mm | - | - | - |
| 1778133634 | 11.67° C | 92% | 1014.8 hPa | 0 mm | - | - | - |
| 1778132431 | 11.67° C | 92% | 1014.8 hPa | 0 mm | - | - | - |
| 1778128233 | 11.67° C | 92% | 1014.5 hPa | 0 mm | - | - | - |
| 1778127030 | 11.67° C | 92% | 1014.8 hPa | 0 mm | - | - | - |
| 1778126428 | 11.67° C | 92% | 1014.8 hPa | 0 mm | - | - | - |
| 1778125225 | 11.67° C | 92% | 1015.3 hPa | 0 mm | - | - | - |
| 1778124019 | 11.67° C | 92% | 1014.9 hPa | 0 mm | - | - | - |
| 1778122233 | 11.67° C | 92% | 1014.6 hPa | 0 mm | - | - | - |
| 1778118036 | 11.67° C | 92% | 1013.9 hPa | 0 mm | - | - | - |
| 1778114423 | 11.67° C | 93% | 1013.9 hPa | 0 mm | - | - | - |
| 1778106032 | 12.22° C | 93% | 1012.3 hPa | 0 mm | - | - | - |
| 1778105429 | 12.22° C | 93% | 1012.1 hPa | 0.25 mm | - | - | - |
| 1778104827 | 12.22° C | 93% | 1012.6 hPa | 0.51 mm | - | - | - |
| 1778097621 | 11.67° C | 96% | 1014.5 hPa | 0 mm | - | - | - |
| 1778095231 | 11.67° C | 97% | 1014.3 hPa | 0 mm | - | - | - |
| 1778091017 | 11.11° C | 97% | 1013.8 hPa | 0.25 mm | - | - | - |
* Rain latest hour (hover to see other rain measurements)
** Current wind speed in m/s (hover to see current wind gust speed)